Time;durP1;ratioP1;P1;durP2;ratioP2;P2;SDS_P1;SDS_P2;PMS_P1;PMS_P2;Temp;Humidity;BMP_temperature;BMP_pressure;BME280_temperature;BME280_humidity;BME280_pressure;Samples;Min_cycle;Max_cycle;Signal;HPM_P1;HPM_P2
2021/12/27 00:01:20;;;;;;;23.97;14.33;;;-1.30;99.90;;;;;;4848867;29;20130;-93
2021/12/27 00:10:09;;;;;;;24.50;14.17;;;-1.10;99.90;;;;;;4884121;23;20060;-93
2021/12/27 00:22:35;;;;;;;25.67;14.73;;;-1.70;99.90;;;;;;4882722;29;20124;-93
2021/12/27 00:25:00;;;;;;;27.07;15.43;;;-0.80;99.90;;;;;;4987990;23;20057;-92
2021/12/27 00:27:30;;;;;;;30.43;15.47;;;-1.00;99.90;;;;;;4874289;29;20079;-92
2021/12/27 00:30:18;;;;;;;25.57;14.50;;;-1.50;99.90;;;;;;4873776;23;20140;-92
2021/12/27 00:33:09;;;;;;;26.27;15.27;;;-1.30;99.90;;;;;;4865474;29;20060;-92
2021/12/27 00:35:36;;;;;;;26.70;14.40;;;-0.90;99.90;;;;;;4863624;29;20056;-92
2021/12/27 00:38:06;;;;;;;27.93;16.07;;;-1.00;99.90;;;;;;4870014;23;20108;-93
2021/12/27 00:43:00;;;;;;;30.40;17.27;;;-1.20;99.90;;;;;;4884440;23;20136;-93
2021/12/27 00:45:29;;;;;;;25.57;15.10;;;-0.90;99.90;;;;;;4884372;23;20523;-93
2021/12/27 00:47:55;;;;;;;27.33;15.30;;;-1.30;99.90;;;;;;4861153;23;20056;-93
2021/12/27 00:58:14;;;;;;;25.60;15.53;;;-1.40;99.90;;;;;;4879977;29;20170;-93
2021/12/27 01:00:43;;;;;;;27.57;15.17;;;-1.40;99.90;;;;;;4862846;29;20060;-93
2021/12/27 01:03:15;;;;;;;26.90;15.13;;;-0.20;99.90;;;;;;4862977;29;20108;-93
2021/12/27 01:05:52;;;;;;;25.03;14.53;;;-0.50;99.90;;;;;;4862753;29;20080;-94
2021/12/27 01:08:21;;;;;;;28.57;15.47;;;-1.30;99.90;;;;;;4864027;29;20041;-93
2021/12/27 01:13:36;;;;;;;27.53;15.63;;;-1.10;99.90;;;;;;4884187;23;20496;-93
2021/12/27 01:16:38;;;;;;;25.10;14.37;;;-0.20;99.90;;;;;;4880560;29;20044;-93
2021/12/27 01:19:06;;;;;;;26.67;15.43;;;-1.10;99.90;;;;;;4871405;29;20386;-93
2021/12/27 01:21:41;;;;;;;25.90;15.73;;;0.10;99.90;;;;;;4864031;29;20053;-93
2021/12/27 01:24:31;;;;;;;26.13;15.50;;;-1.20;99.90;;;;;;4871587;23;20060;-93
2021/12/27 01:27:00;;;;;;;28.53;16.67;;;-0.90;99.90;;;;;;4863247;29;20460;-94
2021/12/27 01:30:08;;;;;;;28.30;16.87;;;-0.90;99.90;;;;;;4875139;23;20535;-94
2021/12/27 01:33:31;;;;;;;26.33;15.40;;;-0.90;99.90;;;;;;4859850;29;20057;-93
2021/12/27 01:40:06;;;;;;;27.63;16.00;;;-1.70;99.90;;;;;;4886675;23;20056;-93
2021/12/27 01:46:30;;;;;;;28.10;15.43;;;-0.70;99.90;;;;;;4807876;29;20165;-94
2021/12/27 01:52:49;;;;;;;29.00;15.80;;;-0.90;99.90;;;;;;5087724;23;20060;-93
2021/12/27 02:15:43;;;;;;;;;;;;;;;;;;;;;
2021/12/27 02:46:32;;;;;;;29.43;17.30;;;-1.50;99.90;;;;;;4810206;29;20069;-93
2021/12/27 03:19:01;;;;;;;28.43;16.27;;;-0.70;99.90;;;;;;4788854;30;20046;-93
2021/12/27 03:32:27;;;;;;;29.47;17.77;;;-1.20;99.90;;;;;;4827236;29;20060;-94
2021/12/27 03:42:58;;;;;;;30.00;17.17;;;-0.50;99.90;;;;;;4764430;29;20051;-94
2021/12/27 03:49:29;;;;;;;28.03;16.90;;;-0.90;99.90;;;;;;4722469;30;20061;-93
2021/12/27 04:25:07;;;;;;;33.50;18.02;;;0.40;99.90;;;;;;4778991;29;20054;-94
2021/12/27 04:29:02;;;;;;;29.37;17.17;;;0.60;99.90;;;;;;4804503;29;20546;-94
2021/12/27 04:52:38;;;;;;;29.02;17.17;;;0.30;99.90;;;;;;4881416;29;20105;-94
2021/12/27 05:51:10;;;;;;;;;;;;;;;;;;;;;
2021/12/27 05:54:00;;;;;;;31.30;18.23;;;-1.40;99.90;;;;;;4799942;29;20057;-94
2021/12/27 07:02:01;;;;;;;34.50;19.97;;;-1.30;99.90;;;;;;4874423;23;20548;-91
2021/12/27 07:04:31;;;;;;;34.33;19.70;;;-0.40;99.90;;;;;;4864826;29;20064;-91
2021/12/27 07:07:00;;;;;;;33.67;19.77;;;1.10;99.90;;;;;;4864762;29;20485;-92
2021/12/27 07:09:26;;;;;;;33.90;19.37;;;0.60;99.90;;;;;;4871934;23;20053;-91
2021/12/27 07:31:01;;;;;;;34.80;20.00;;;-0.30;99.90;;;;;;4834947;29;20057;-88
2021/12/27 07:33:30;;;;;;;35.03;20.10;;;-0.60;99.90;;;;;;4826140;29;20133;-88
2021/12/27 07:36:04;;;;;;;33.13;19.77;;;-0.10;99.90;;;;;;4826325;29;20054;-88
2021/12/27 07:38:32;;;;;;;;;;;-0.60;99.90;;;;;;4843929;29;20406;-88
2021/12/27 07:41:03;;;;;;;35.57;20.27;;;-0.50;99.90;;;;;;4826282;29;20347;-88
2021/12/27 07:43:31;;;;;;;34.73;19.87;;;-0.60;99.90;;;;;;4827033;29;20046;-88
2021/12/27 07:46:00;;;;;;;35.47;20.60;;;-0.50;99.90;;;;;;4826755;29;20537;-88
2021/12/27 07:48:32;;;;;;;34.17;20.67;;;-0.40;99.90;;;;;;4826315;29;20053;-89
2021/12/27 07:51:00;;;;;;;33.80;20.37;;;-0.50;99.90;;;;;;4826211;29;20158;-88
2021/12/27 07:53:26;;;;;;;33.87;20.67;;;-0.30;99.90;;;;;;4827719;29;20128;-88
2021/12/27 07:55:54;;;;;;;35.73;20.93;;;-0.50;99.90;;;;;;4844514;29;20062;-88
2021/12/27 07:58:23;;;;;;;35.43;20.97;;;-0.30;99.90;;;;;;4833724;29;20510;-87
2021/12/27 08:00:58;;;;;;;38.47;20.63;;;0.80;99.90;;;;;;4826373;29;20068;-89
2021/12/27 08:03:29;;;;;;;36.87;21.50;;;-0.30;99.90;;;;;;4826952;29;20496;-88
2021/12/27 08:05:58;;;;;;;37.30;20.90;;;-0.20;99.90;;;;;;4826697;29;20250;-89
2021/12/27 08:08:30;;;;;;;35.67;21.13;;;0.20;99.90;;;;;;4826674;29;20110;-89
2021/12/27 08:10:58;;;;;;;39.43;21.30;;;;;;;;;;4826964;29;20503;-89
2021/12/27 08:13:24;;;;;;;38.47;21.40;;;0.00;99.90;;;;;;4827024;29;20132;-90
2021/12/27 08:15:53;;;;;;;37.73;21.20;;;0.10;99.90;;;;;;4826053;29;20270;-89
2021/12/27 08:18:20;;;;;;;44.30;22.80;;;-0.30;99.90;;;;;;4845733;23;20049;-88
2021/12/27 08:20:51;;;;;;;39.60;20.40;;;1.60;99.90;;;;;;4862997;29;20061;-87
2021/12/27 08:23:23;;;;;;;42.33;21.37;;;-0.20;99.90;;;;;;4862550;29;20136;-90
2021/12/27 08:26:19;;;;;;;39.63;22.13;;;0.20;99.90;;;;;;4900865;23;20100;-90
2021/12/27 08:28:55;;;;;;;40.37;21.87;;;0.10;99.90;;;;;;5287416;23;20039;31
2021/12/27 08:35:32;;;;;;;42.13;22.33;;;1.20;99.90;;;;;;5025849;23;20049;-88
2021/12/27 08:38:08;;;;;;;;;;;;;;;;;;;;;
2021/12/27 09:27:42;;;;;;;64.03;25.95;;;1.60;99.90;;;;;;4896294;29;20055;-86
2021/12/27 09:30:18;;;;;;;63.27;25.70;;;0.50;99.90;;;;;;4880478;29;20063;-87
2021/12/27 09:32:50;;;;;;;64.50;26.77;;;1.80;99.90;;;;;;4861919;29;20080;-87
2021/12/27 09:35:24;;;;;;;68.57;27.53;;;0.30;99.90;;;;;;4862495;29;20095;-89
2021/12/27 09:37:52;;;;;;;72.93;28.23;;;0.40;99.90;;;;;;4861854;29;20485;-89
2021/12/27 09:40:53;;;;;;;81.00;29.37;;;1.30;99.90;;;;;;4864011;29;20121;-89
2021/12/27 09:43:47;;;;;;;72.03;29.20;;;1.30;99.90;;;;;;4851260;29;20547;-89
2021/12/27 09:46:13;;;;;;;75.37;28.57;;;0.60;99.90;;;;;;4878167;29;20041;-89
2021/12/27 09:48:40;;;;;;;80.10;29.77;;;0.50;99.90;;;;;;4861616;29;20435;-89
2021/12/27 09:51:06;;;;;;;91.33;31.93;;;0.70;99.90;;;;;;4862110;29;20072;-88
2021/12/27 09:53:32;;;;;;;76.90;30.90;;;0.90;99.90;;;;;;4861713;29;20883;-88
2021/12/27 09:56:00;;;;;;;80.83;31.30;;;0.60;99.90;;;;;;4862475;29;20056;-87
2021/12/27 09:58:48;;;;;;;80.87;31.03;;;0.70;99.90;;;;;;4884415;23;20386;-92
2021/12/27 10:01:14;;;;;;;73.97;29.33;;;0.80;99.90;;;;;;4829593;23;20387;-87
2021/12/27 10:03:53;;;;;;;85.93;30.97;;;0.80;99.90;;;;;;4825217;29;20074;-87
2021/12/27 10:06:20;;;;;;;79.60;32.07;;;1.00;99.90;;;;;;4825670;29;20059;-86
2021/12/27 10:08:49;;;;;;;83.53;31.97;;;0.90;99.90;;;;;;4824262;29;20065;-89
2021/12/27 10:11:29;;;;;;;104.10;35.03;;;2.40;99.90;;;;;;4843744;23;20052;-88
2021/12/27 10:14:26;;;;;;;102.07;33.73;;;0.90;99.90;;;;;;4878162;29;20421;-89
2021/12/27 10:17:23;;;;;;;89.83;31.83;;;1.60;99.90;;;;;;4862166;29;20052;-90
2021/12/27 10:19:55;;;;;;;84.70;32.33;;;1.60;99.90;;;;;;4861919;29;20052;-86
2021/12/27 10:22:27;;;;;;;83.67;31.13;;;0.90;99.90;;;;;;4861422;29;20080;-88
2021/12/27 10:24:53;;;;;;;84.77;32.10;;;0.90;99.90;;;;;;4862087;29;20049;-88
2021/12/27 10:27:24;;;;;;;76.67;30.80;;;0.90;99.90;;;;;;4861778;29;20359;-88
2021/12/27 10:29:49;;;;;;;87.90;30.50;;;1.00;99.90;;;;;;4877498;29;20445;-87
2021/12/27 10:32:24;;;;;;;101.37;33.73;;;2.20;99.90;;;;;;4861629;29;20053;-91
2021/12/27 10:34:54;;;;;;;78.70;29.90;;;1.00;99.90;;;;;;4864455;29;20053;-88
2021/12/27 10:37:31;;;;;;;78.40;31.63;;;1.40;99.90;;;;;;4867425;29;20056;-88
2021/12/27 10:40:30;;;;;;;83.23;32.23;;;0.80;99.90;;;;;;4868663;29;20103;-87
2021/12/27 10:43:03;;;;;;;81.20;31.43;;;2.30;99.90;;;;;;4867018;29;20063;-87
2021/12/27 10:45:31;;;;;;;82.93;30.60;;;1.40;99.90;;;;;;4865677;29;20049;-88
2021/12/27 10:48:06;;;;;;;85.50;30.17;;;1.40;99.90;;;;;;4868012;23;20510;-87
2021/12/27 10:50:33;;;;;;;70.27;29.23;;;0.90;99.90;;;;;;4881301;29;20053;-88
2021/12/27 10:53:01;;;;;;;93.57;31.60;;;0.70;99.90;;;;;;4870537;23;20053;-87
2021/12/27 10:56:36;;;;;;;87.57;31.30;;;0.50;99.90;;;;;;4969715;23;20040;-87
2021/12/27 10:59:27;;;;;;;92.32;33.08;;;1.00;99.90;;;;;;4860781;29;20061;-87
2021/12/27 11:04:20;;;;;;;94.40;33.20;;;1.90;99.90;;;;;;5027490;27;1328009;-89
2021/12/27 11:07:51;;;;;;;95.90;31.63;;;2.70;99.90;;;;;;4971013;28;20050;-89
2021/12/27 11:10:48;;;;;;;108.13;33.57;;;1.70;99.90;;;;;;5018451;23;20699;-88
2021/12/27 11:16:15;;;;;;;86.30;31.37;;;0.20;99.90;;;;;;4957864;28;20081;-89
2021/12/27 11:18:47;;;;;;;80.70;31.00;;;1.30;99.90;;;;;;4978567;28;20092;-89
2021/12/27 11:21:17;;;;;;;99.57;31.83;;;1.20;99.90;;;;;;4977418;28;20058;-89
2021/12/27 11:26:41;;;;;;;94.63;34.27;;;1.80;99.90;;;;;;4935923;29;20052;-89
2021/12/27 11:29:35;;;;;;;97.07;33.80;;;1.20;99.90;;;;;;4995564;23;20221;-87
2021/12/27 11:32:39;;;;;;;100.90;34.33;;;0.80;99.90;;;;;;5035998;22;20049;31
2021/12/27 11:35:54;;;;;;;103.10;35.22;;;2.90;99.90;;;;;;5018361;28;20057;-91
2021/12/27 11:39:13;;;;;;;87.57;33.00;;;1.50;99.90;;;;;;5008456;28;20060;-91
2021/12/27 11:45:45;;;;;;;113.10;35.93;;;1.10;99.90;;;;;;4942035;29;20056;-87
2021/12/27 11:48:17;;;;;;;130.20;37.67;;;1.50;99.90;;;;;;4933475;29;20051;-89
2021/12/27 11:51:10;;;;;;;116.17;37.33;;;1.70;99.90;;;;;;4932923;29;20052;-88
2021/12/27 11:53:44;;;;;;;110.60;36.77;;;1.90;99.90;;;;;;4932770;29;20130;-89
2021/12/27 11:56:17;;;;;;;;;;;1.70;99.90;;;;;;4945944;28;20192;-91
2021/12/27 11:59:14;;;;;;;110.10;36.60;;;1.70;99.90;;;;;;5023559;23;19972;-87
2021/12/27 12:01:39;;;;;;;104.90;35.80;;;1.70;99.90;;;;;;5028057;28;20056;-87
2021/12/27 12:04:05;;;;;;;105.10;35.30;;;2.10;99.90;;;;;;5030797;28;20049;-87
2021/12/27 12:06:48;;;;;;;104.47;33.77;;;1.50;99.90;;;;;;5031319;28;20044;-87
2021/12/27 12:09:18;;;;;;;104.03;33.90;;;2.20;99.90;;;;;;5030334;28;20041;-87
2021/12/27 12:11:58;;;;;;;97.10;34.30;;;1.60;99.90;;;;;;5030444;28;20045;-86
2021/12/27 12:14:28;;;;;;;98.00;33.27;;;1.80;99.90;;;;;;5020217;28;20389;-89
2021/12/27 12:16:54;;;;;;;84.20;31.37;;;3.30;99.90;;;;;;5017775;28;20154;-91
2021/12/27 12:19:54;;;;;;;84.70;31.23;;;2.40;99.90;;;;;;5017764;28;20041;-90
2021/12/27 12:23:26;;;;;;;100.67;32.10;;;1.60;99.90;;;;;;5016919;28;20123;-89
2021/12/27 12:26:00;;;;;;;87.23;29.70;;;2.50;99.90;;;;;;4922700;29;20063;-89
2021/12/27 12:28:27;;;;;;;83.93;30.60;;;3.40;99.90;;;;;;4937263;29;20082;-89
2021/12/27 12:30:56;;;;;;;77.00;30.37;;;1.90;99.90;;;;;;4982938;28;20049;-90
2021/12/27 12:33:30;;;;;;;70.13;28.83;;;2.90;99.90;;;;;;5017250;28;20136;-90
2021/12/27 12:36:03;;;;;;;69.88;29.23;;;2.90;99.90;;;;;;5034427;28;20048;-90
2021/12/27 12:38:34;;;;;;;63.97;28.35;;;2.30;99.90;;;;;;5017580;28;20489;-91
2021/12/27 12:41:29;;;;;;;70.87;27.53;;;2.10;99.90;;;;;;5017153;28;20048;-91
2021/12/27 12:44:01;;;;;;;60.70;25.87;;;2.40;99.90;;;;;;5016567;28;20053;-89
2021/12/27 12:46:54;;;;;;;60.87;25.47;;;2.50;99.90;;;;;;5017690;28;20045;-91
2021/12/27 12:50:07;;;;;;;52.60;26.13;;;2.30;99.90;;;;;;5022724;23;20116;-93
2021/12/27 12:55:50;;;;;;;;;;;2.10;99.90;;;;;;5061968;22;20057;-89
2021/12/27 12:58:43;;;;;;;51.53;24.50;;;2.70;99.90;;;;;;5036415;28;19928;-93
2021/12/27 13:01:11;;;;;;;46.97;23.07;;;2.60;99.90;;;;;;5037267;28;20048;-85
2021/12/27 13:04:27;;;;;;;48.70;24.73;;;2.40;99.90;;;;;;5032972;23;20192;-91
2021/12/27 13:06:53;;;;;;;50.00;23.63;;;4.20;99.90;;;;;;5032638;28;20477;-90
2021/12/27 13:09:52;;;;;;;47.13;23.03;;;2.70;99.90;;;;;;5046918;22;20056;-91
2021/12/27 13:12:26;;;;;;;42.13;21.93;;;2.90;99.90;;;;;;5042663;23;20098;-91
2021/12/27 13:14:53;;;;;;;43.07;21.60;;;2.60;99.90;;;;;;5036947;28;20102;-89
2021/12/27 13:17:22;;;;;;;45.50;21.03;;;2.70;99.90;;;;;;5035908;28;20392;-90
2021/12/27 13:20:42;;;;;;;46.33;21.93;;;2.60;99.90;;;;;;5056942;22;20046;-89
2021/12/27 13:23:14;;;;;;;39.87;21.23;;;3.60;99.90;;;;;;4937418;29;20079;-90
2021/12/27 13:25:44;;;;;;;47.07;23.67;;;2.90;99.90;;;;;;4936771;29;20040;-88
2021/12/27 13:28:40;;;;;;;44.70;22.20;;;2.50;99.90;;;;;;4997474;28;20065;-90
2021/12/27 13:31:27;;;;;;;45.80;22.33;;;2.70;99.90;;;;;;5032854;28;20087;-90
2021/12/27 13:34:07;;;;;;;40.00;22.53;;;2.70;99.90;;;;;;5032442;28;20064;-90
2021/12/27 13:39:34;;;;;;;42.23;22.53;;;2.70;99.90;;;;;;5011748;28;20104;-90
2021/12/27 13:42:07;;;;;;;44.00;21.97;;;2.70;99.90;;;;;;4995031;28;20439;-90
2021/12/27 13:44:36;;;;;;;45.45;22.98;;;2.70;99.90;;;;;;4996343;28;20089;-90
2021/12/27 13:47:07;;;;;;;44.30;22.10;;;2.70;99.90;;;;;;4995536;28;20044;-91
2021/12/27 13:49:57;;;;;;;42.30;22.33;;;2.60;99.90;;;;;;4996823;28;20354;-90
2021/12/27 13:52:23;;;;;;;43.80;21.90;;;2.40;99.90;;;;;;4995321;28;20049;-90
2021/12/27 13:54:55;;;;;;;40.13;21.30;;;2.50;99.90;;;;;;4996166;28;20038;-90
2021/12/27 13:57:43;;;;;;;46.87;22.30;;;3.70;99.90;;;;;;4999326;28;20056;-90
2021/12/27 14:00:25;;;;;;;46.20;21.77;;;4.50;99.90;;;;;;5012147;28;20042;-90
2021/12/27 14:03:03;;;;;;;43.77;21.47;;;2.50;99.90;;;;;;4995952;28;20129;-91
2021/12/27 14:05:39;;;;;;;42.20;21.77;;;2.50;99.90;;;;;;4996111;28;20046;-89
2021/12/27 14:08:12;;;;;;;44.83;23.10;;;2.60;99.90;;;;;;4995315;28;20065;-90
2021/12/27 14:10:38;;;;;;;43.83;22.43;;;3.70;99.90;;;;;;4996077;28;20052;-90
2021/12/27 14:13:07;;;;;;;44.47;22.77;;;2.20;99.90;;;;;;4996135;28;20053;-91
2021/12/27 14:15:37;;;;;;;45.47;21.37;;;2.30;99.90;;;;;;4995252;28;20137;-90
2021/12/27 14:18:33;;;;;;;46.70;23.30;;;2.00;99.90;;;;;;4994915;28;20046;-91
2021/12/27 14:21:14;;;;;;;46.73;22.47;;;1.10;99.90;;;;;;4995460;28;20077;-91
2021/12/27 14:24:19;;;;;;;45.87;22.77;;;1.80;99.90;;;;;;5022464;22;20419;-91
2021/12/27 14:26:54;;;;;;;48.30;23.50;;;2.20;99.90;;;;;;5040653;23;20060;-90
2021/12/27 14:30:03;;;;;;;47.40;24.10;;;4.00;99.90;;;;;;5042457;22;20404;-91
2021/12/27 14:32:35;;;;;;;;;;;1.90;99.90;;;;;;5035890;28;20045;-91
2021/12/27 14:35:27;;;;;;;48.47;23.57;;;1.40;99.90;;;;;;5033981;28;19924;-90
2021/12/27 14:38:17;;;;;;;50.53;23.83;;;2.00;99.90;;;;;;5049097;23;20073;-91
2021/12/27 14:41:04;;;;;;;46.87;23.43;;;1.90;99.90;;;;;;5009800;28;20153;-91
2021/12/27 14:55:18;;;;;;;;;;;;;;;;;;;;;
2021/12/27 14:57:57;;;;;;;50.13;22.97;;;1.50;99.90;;;;;;4960631;28;20151;-89
2021/12/27 15:04:06;;;;;;;47.23;22.83;;;2.20;99.90;;;;;;5009217;28;20463;-91
2021/12/27 15:06:36;;;;;;;44.03;23.63;;;2.30;99.90;;;;;;4995347;28;20294;-92
2021/12/27 15:12:05;;;;;;;45.43;23.97;;;2.30;99.90;;;;;;4970641;22;20050;-91
2021/12/27 15:17:27;;;;;;;45.83;25.10;;;2.00;99.90;;;;;;4971935;28;20055;-91
2021/12/27 15:23:03;;;;;;;49.37;25.00;;;2.10;99.90;;;;;;5097577;23;20042;-92
2021/12/27 15:25:36;;;;;;;49.28;24.20;;;2.00;99.90;;;;;;4952998;23;20078;-92
2021/12/27 15:28:04;;;;;;;47.53;23.77;;;3.40;99.90;;;;;;4970249;23;20170;-92
2021/12/27 15:30:45;;;;;;;50.93;24.63;;;1.70;99.90;;;;;;5243187;23;20073;-91
2021/12/27 15:33:38;;;;;;;49.80;24.37;;;2.10;99.90;;;;;;4959784;28;20089;-92
2021/12/27 15:36:06;;;;;;;47.55;23.27;;;3.20;99.90;;;;;;4967204;23;20517;31
2021/12/27 15:38:34;;;;;;;43.57;23.83;;;2.00;99.90;;;;;;4975279;23;20059;-89
2021/12/27 15:52:18;;;;;;;49.20;26.63;;;3.30;99.90;;;;;;4959424;28;20065;-91
2021/12/27 15:54:49;;;;;;;48.70;22.67;;;2.20;99.90;;;;;;4944345;29;20043;-90
2021/12/27 15:57:18;;;;;;;44.73;24.40;;;1.40;99.90;;;;;;4940271;29;20043;-90
2021/12/27 16:27:22;;;;;;;42.07;22.77;;;1.90;99.90;;;;;;5233288;23;20345;-88
2021/12/27 16:45:56;;;;;;;38.97;23.07;;;1.80;99.90;;;;;;4968543;28;20030;-92
2021/12/27 16:48:26;;;;;;;39.30;22.83;;;2.20;99.90;;;;;;4948063;28;20039;-94
2021/12/27 16:51:02;;;;;;;43.27;23.33;;;2.00;99.90;;;;;;4958149;28;20039;-95
2021/12/27 16:53:34;;;;;;;42.43;23.47;;;1.90;99.90;;;;;;4950342;29;20044;-94
2021/12/27 16:56:00;;;;;;;40.80;23.07;;;2.80;99.90;;;;;;4946638;29;20059;-93
2021/12/27 16:58:26;;;;;;;38.53;21.93;;;2.60;99.90;;;;;;4944336;28;20051;-94
2021/12/27 17:00:53;;;;;;;40.73;22.77;;;2.30;99.90;;;;;;4948849;28;20102;-93
2021/12/27 17:03:22;;;;;;;40.20;22.43;;;3.20;99.90;;;;;;4970800;28;20019;-94
2021/12/27 17:05:48;;;;;;;37.77;23.63;;;1.90;99.90;;;;;;4968691;28;20057;-93
2021/12/27 17:08:20;;;;;;;39.87;23.03;;;1.60;99.90;;;;;;4943027;28;20043;-96
2021/12/27 17:10:46;;;;;;;37.20;22.70;;;2.90;99.90;;;;;;4941200;29;20505;-94
2021/12/27 17:13:29;;;;;;;37.47;22.97;;;3.30;99.90;;;;;;4942034;28;20043;-93
2021/12/27 17:15:57;;;;;;;36.90;21.53;;;2.00;99.90;;;;;;4946193;29;20043;-93
2021/12/27 17:18:23;;;;;;;38.90;22.37;;;1.90;99.90;;;;;;4944337;23;20071;-93
2021/12/27 17:20:49;;;;;;;37.77;22.80;;;1.80;99.90;;;;;;4924375;29;20082;-92
2021/12/27 17:23:15;;;;;;;37.63;21.50;;;3.40;99.90;;;;;;4931465;29;20054;-94
2021/12/27 17:25:48;;;;;;;36.20;21.03;;;1.80;99.90;;;;;;4935079;29;20107;-94
2021/12/27 17:28:26;;;;;;;35.80;20.85;;;1.70;99.90;;;;;;4927845;29;20043;-95
2021/12/27 17:30:51;;;;;;;38.83;21.53;;;1.30;99.90;;;;;;4935074;29;20071;-94
2021/12/27 17:33:23;;;;;;;36.87;20.83;;;1.80;99.90;;;;;;4937272;29;20074;-95
2021/12/27 17:35:49;;;;;;;35.73;21.67;;;2.20;99.90;;;;;;4932342;29;20611;-91
2021/12/27 17:38:15;;;;;;;33.43;21.13;;;1.80;99.90;;;;;;4928896;29;20076;-90
2021/12/27 17:40:44;;;;;;;32.73;20.53;;;1.90;99.90;;;;;;4942947;29;20531;-91
2021/12/27 17:43:15;;;;;;;35.03;21.27;;;2.40;99.90;;;;;;4925173;29;20047;-91
2021/12/27 17:45:41;;;;;;;34.10;20.77;;;1.90;99.90;;;;;;4931577;29;20043;-91
2021/12/27 17:48:20;;;;;;;35.77;20.50;;;0.90;99.90;;;;;;4935312;29;20034;-92
2021/12/27 17:50:46;;;;;;;31.60;19.87;;;1.90;99.90;;;;;;4932566;29;20130;-91
2021/12/27 17:53:12;;;;;;;36.93;21.10;;;2.50;99.90;;;;;;4928112;29;20118;-90
2021/12/27 17:55:38;;;;;;;34.23;20.40;;;1.70;99.90;;;;;;4934440;29;20056;-91
2021/12/27 17:58:04;;;;;;;35.53;21.13;;;1.90;99.90;;;;;;4925600;29;20048;-91
2021/12/27 18:00:30;;;;;;;35.00;20.70;;;1.70;99.90;;;;;;4932453;29;20101;-90
2021/12/27 18:03:03;;;;;;;34.90;21.00;;;3.10;99.90;;;;;;4930813;29;20051;-92
2021/12/27 18:05:31;;;;;;;36.47;21.10;;;1.70;99.90;;;;;;4930840;29;20043;-91
2021/12/27 18:08:00;;;;;;;36.87;21.00;;;2.00;99.90;;;;;;4930736;29;20918;-92
2021/12/27 18:10:58;;;;;;;33.63;19.90;;;2.60;99.90;;;;;;4928612;29;20134;-92
2021/12/27 18:13:30;;;;;;;34.23;20.70;;;1.80;99.90;;;;;;4934410;29;20051;-91
2021/12/27 18:15:59;;;;;;;35.43;20.07;;;1.80;99.90;;;;;;4932013;29;20048;-93
2021/12/27 18:22:06;;;;;;;34.90;21.10;;;1.30;99.90;;;;;;4951382;28;20101;-92
2021/12/27 18:24:35;;;;;;;34.47;20.80;;;2.00;99.90;;;;;;4945030;28;20094;-92
2021/12/27 18:27:06;;;;;;;33.00;19.30;;;2.00;99.90;;;;;;4951511;28;20034;-92
2021/12/27 18:29:37;;;;;;;34.70;20.27;;;2.00;99.90;;;;;;4948986;28;20058;-93
2021/12/27 18:32:04;;;;;;;33.90;20.57;;;1.80;99.90;;;;;;4961297;28;20089;-93
2021/12/27 18:34:31;;;;;;;33.37;20.17;;;2.00;99.90;;;;;;4964795;28;20043;-92
2021/12/27 18:37:01;;;;;;;34.50;19.93;;;1.40;99.90;;;;;;4963722;29;20117;-92
2021/12/27 18:39:28;;;;;;;33.00;19.73;;;1.70;99.90;;;;;;4941806;28;20054;-86
2021/12/27 18:42:06;;;;;;;31.47;19.27;;;2.00;99.90;;;;;;4940419;29;20043;-95
2021/12/27 18:44:35;;;;;;;32.90;19.43;;;2.30;99.90;;;;;;4946879;28;20093;-93
2021/12/27 18:47:22;;;;;;;34.10;20.43;;;3.30;99.90;;;;;;4956209;23;20038;-95
2021/12/27 18:49:54;;;;;;;35.67;20.67;;;2.20;99.90;;;;;;4935555;29;20578;-95
2021/12/27 18:52:26;;;;;;;36.20;22.20;;;2.00;99.90;;;;;;4942172;23;20071;-96
2021/12/27 18:55:18;;;;;;;35.90;22.30;;;1.50;99.90;;;;;;4939164;29;20081;-94
2021/12/27 19:00:13;;;;;;;36.30;21.80;;;2.20;99.90;;;;;;4964440;23;20129;-95
2021/12/27 19:03:02;;;;;;;33.17;21.20;;;2.20;99.90;;;;;;4939586;28;20070;-94
2021/12/27 19:05:29;;;;;;;33.17;19.97;;;3.60;99.90;;;;;;4957892;28;20394;-96
2021/12/27 19:08:00;;;;;;;31.73;19.40;;;2.30;99.90;;;;;;4957617;28;20043;-96
2021/12/27 19:10:30;;;;;;;31.43;19.03;;;2.70;99.90;;;;;;4946969;28;20047;-94
2021/12/27 19:13:06;;;;;;;28.57;18.03;;;2.30;99.90;;;;;;4950293;28;20217;-91
2021/12/27 19:15:32;;;;;;;32.20;18.93;;;2.30;99.90;;;;;;4956871;28;20133;-94
2021/12/27 19:17:58;;;;;;;30.83;19.07;;;2.60;99.90;;;;;;4956088;28;20462;-93
2021/12/27 19:20:25;;;;;;;31.67;18.73;;;2.40;99.90;;;;;;4956672;28;20038;-93
2021/12/27 19:25:22;;;;;;;30.07;18.63;;;2.60;99.90;;;;;;4982677;23;20117;-94
2021/12/27 19:27:49;;;;;;;29.90;18.87;;;2.50;99.90;;;;;;4961083;28;20057;-95
2021/12/27 19:30:18;;;;;;;30.60;18.23;;;2.60;99.90;;;;;;4961044;28;20549;-91
2021/12/27 19:32:44;;;;;;;32.70;18.60;;;2.80;99.90;;;;;;4965563;28;20483;-92
2021/12/27 19:35:18;;;;;;;30.17;18.83;;;3.60;99.90;;;;;;4960313;28;20142;-95
2021/12/27 19:38:09;;;;;;;29.93;17.50;;;2.40;99.90;;;;;;4948634;28;20041;-93
2021/12/27 19:47:45;;;;;;;30.90;19.57;;;2.80;99.90;;;;;;4887193;29;20091;-93
2021/12/27 20:30:45;;;;;;;25.67;15.63;;;3.10;99.90;;;;;;4929808;23;20052;-92
2021/12/27 20:33:12;;;;;;;25.77;15.97;;;3.00;99.90;;;;;;4873969;23;20071;-92
2021/12/27 20:35:44;;;;;;;25.40;15.83;;;4.10;99.90;;;;;;4854218;23;20092;-92
2021/12/27 20:38:39;;;;;;;24.90;15.43;;;2.70;99.90;;;;;;4864096;23;20124;-92
2021/12/27 20:41:07;;;;;;;;;;;3.20;99.90;;;;;;4864958;29;20489;-93
2021/12/27 20:43:57;;;;;;;24.10;15.13;;;2.20;99.90;;;;;;4870227;23;19946;-94
2021/12/27 20:49:58;;;;;;;25.80;15.73;;;3.00;99.90;;;;;;4869448;29;20137;-96
2021/12/27 20:52:52;;;;;;;24.10;14.93;;;4.50;99.90;;;;;;4849157;23;20057;-94
2021/12/27 21:05:28;;;;;;;23.63;14.57;;;3.30;99.90;;;;;;4859423;23;20136;-94
2021/12/27 21:08:14;;;;;;;23.37;14.50;;;4.50;99.90;;;;;;4846572;29;20102;-94
2021/12/27 21:10:47;;;;;;;23.27;14.70;;;2.90;99.90;;;;;;4846546;29;20136;-93
2021/12/27 21:13:43;;;;;;;24.70;14.85;;;3.30;99.90;;;;;;4847393;29;20056;-94
2021/12/27 21:16:45;;;;;;;22.93;14.37;;;2.60;99.90;;;;;;4848598;29;20085;-96
2021/12/27 21:19:13;;;;;;;25.93;15.87;;;3.70;99.90;;;;;;4842948;29;20051;-92
2021/12/27 21:59:56;;;;;;;24.30;15.40;;;3.20;99.90;;;;;;4779273;29;20041;-92
2021/12/27 22:06:11;;;;;;;23.55;14.80;;;2.50;99.90;;;;;;5707367;23;20065;31
2021/12/27 22:08:38;;;;;;;22.70;15.23;;;3.80;99.90;;;;;;4896546;23;20070;-91
2021/12/27 22:20:48;;;;;;;25.43;15.83;;;3.90;99.90;;;;;;3065386;27;20050;-93
2021/12/27 22:23:14;;;;;;;24.30;16.07;;;3.90;99.90;;;;;;4831499;23;20146;-93
2021/12/27 22:43:19;;;;;;;26.93;17.30;;;4.30;99.90;;;;;;5082722;23;20073;-93
